Terminal Aerodrome Forecast
Issued by NWS Hastings, NE

Home | Current Version | Previous Version | Text Only | Print | Product List | Glossary On
Versions: 1 2 3 4 5 6 7 8 9 10 11 12
000
FTUS45 KGID 232321
TAFEAR
TAF
KEAR 232321Z 2400/2424 20007KT P6SM SCT250
     FM241100 25008KT P6SM SCT250 WS007/30040KT
     FM241500 27013KT P6SM SCT250
     FM241700 31021G29KT P6SM SCT250=

USA.gov is the U.S. government's official web portal to all federal, state and local government web resources and services.